Time;durP1;ratioP1;P1;durP2;ratioP2;P2;SDS_P1;SDS_P2;PMS_P1;PMS_P2;Temp;Humidity;BMP_temperature;BMP_pressure;BME280_temperature;BME280_humidity;BME280_pressure;Samples;Min_cycle;Max_cycle;Signal;HPM_P1;HPM_P2
2023/05/01 00:01:13;;;;;;;9.00;4.90;;;;;;;-145.41;100.00;58600.66;4965985;28;20039;-74
2023/05/01 00:03:39;;;;;;;9.80;4.80;;;;;;;-145.41;100.00;58600.66;4966100;28;20138;-74
2023/05/01 00:06:04;;;;;;;11.20;5.45;;;;;;;-145.41;100.00;58600.66;4964957;28;20039;-73
2023/05/01 00:08:30;;;;;;;11.98;5.30;;;;;;;-145.41;100.00;58600.66;4965774;28;20354;-73
2023/05/01 00:10:56;;;;;;;7.05;4.30;;;;;;;-145.41;100.00;58600.66;4965019;28;20046;-73
2023/05/01 00:13:23;;;;;;;10.40;5.03;;;;;;;-145.41;100.00;58600.66;4967108;28;20039;-74
2023/05/01 00:15:49;;;;;;;14.10;5.40;;;;;;;-145.41;100.00;58600.66;4967913;28;20536;-74
2023/05/01 00:18:14;;;;;;;11.05;6.20;;;;;;;-145.41;100.00;58600.66;4968352;28;20034;-75
2023/05/01 00:20:40;;;;;;;13.20;6.45;;;;;;;-145.41;100.00;58600.66;4965966;28;20497;-74
2023/05/01 00:23:05;;;;;;;11.88;5.72;;;;;;;-145.41;100.00;58600.66;4964659;28;20506;-74
2023/05/01 00:25:31;;;;;;;11.70;6.68;;;;;;;-145.41;100.00;58600.66;4963932;28;20098;-74
2023/05/01 00:27:58;;;;;;;12.43;6.18;;;;;;;-145.41;100.00;58600.66;4970007;28;20034;-75
2023/05/01 00:30:24;;;;;;;15.27;7.05;;;;;;;-145.41;100.00;58600.66;4965012;28;20465;-74
2023/05/01 00:32:49;;;;;;;14.63;7.30;;;;;;;-145.41;100.00;58600.66;4966903;28;20066;-74
2023/05/01 00:35:15;;;;;;;14.45;6.88;;;;;;;-145.41;100.00;58600.66;4962099;28;20039;-74
2023/05/01 00:37:41;;;;;;;12.68;7.43;;;;;;;-145.41;100.00;58600.66;4968647;28;20034;-75
2023/05/01 00:40:07;;;;;;;10.43;6.13;;;;;;;-145.41;100.00;58600.66;4966726;28;20483;-74
2023/05/01 00:42:38;;;;;;;11.10;6.00;;;;;;;-145.41;100.00;58600.66;4966746;28;20074;-74
2023/05/01 00:45:05;;;;;;;12.70;7.38;;;;;;;-145.41;100.00;58600.66;4962143;28;20045;-74
2023/05/01 00:47:31;;;;;;;13.63;7.80;;;;;;;-145.41;100.00;58600.66;4964299;28;20045;-74
2023/05/01 00:49:59;;;;;;;14.15;6.72;;;;;;;-145.41;100.00;58600.66;4967997;28;20039;-74
2023/05/01 00:52:24;;;;;;;13.77;7.03;;;;;;;-145.41;100.00;58600.66;4963763;28;20073;-74
2023/05/01 00:54:51;;;;;;;13.40;7.18;;;;;;;-145.41;100.00;58600.66;4962950;28;20455;-73
2023/05/01 00:57:19;;;;;;;13.00;7.38;;;;;;;-145.41;100.00;58600.66;4963265;28;20130;-73
2023/05/01 00:59:44;;;;;;;13.07;6.82;;;;;;;-145.41;100.00;58600.66;4963257;28;20122;-73
2023/05/01 01:02:11;;;;;;;13.20;6.82;;;;;;;-145.41;100.00;58600.66;4963057;28;20137;-73
2023/05/01 01:04:38;;;;;;;13.70;7.07;;;;;;;-145.41;100.00;58600.66;4966347;28;20912;-73
2023/05/01 01:07:18;;;;;;;12.23;6.63;;;;;;;-145.41;100.00;58600.66;4964362;28;20086;-74
2023/05/01 01:09:54;;;;;;;14.48;7.32;;;;;;;-145.41;100.00;58600.66;4963226;28;20557;-73
2023/05/01 01:12:31;;;;;;;13.05;6.88;;;;;;;-145.41;100.00;58600.66;4968372;28;20045;-74
2023/05/01 01:15:06;;;;;;;13.90;6.40;;;;;;;-145.41;100.00;58600.66;4961247;28;20047;-74
2023/05/01 01:17:52;;;;;;;13.07;7.45;;;;;;;-145.41;100.00;58600.66;4966767;28;20065;-74
2023/05/01 01:20:30;;;;;;;12.68;7.15;;;;;;;-145.41;100.00;58600.66;4962559;28;20035;-74
2023/05/01 01:23:26;;;;;;;12.48;6.82;;;;;;;-145.41;100.00;58600.66;4963634;28;20046;-74
2023/05/01 01:25:54;;;;;;;14.98;7.07;;;;;;;-145.41;100.00;58600.66;4964550;28;20043;-74
2023/05/01 01:28:47;;;;;;;15.18;7.72;;;;;;;-145.41;100.00;58600.66;4964877;28;20093;-74
2023/05/01 01:31:19;;;;;;;12.55;6.65;;;;;;;-145.41;100.00;58600.66;4968470;28;20033;-74
2023/05/01 01:34:08;;;;;;;14.20;7.03;;;;;;;-145.41;100.00;58600.66;4968718;28;20031;-74
2023/05/01 01:37:01;;;;;;;10.73;6.78;;;;;;;-145.41;100.00;58600.66;4962252;28;20031;-75
2023/05/01 01:39:51;;;;;;;12.35;6.20;;;;;;;-145.41;100.00;58600.66;4964891;28;20031;-74
2023/05/01 01:42:41;;;;;;;10.75;6.78;;;;;;;-145.41;100.00;58600.66;4979252;28;20046;-74
2023/05/01 01:45:14;;;;;;;17.40;7.80;;;;;;;-145.41;100.00;58600.66;4962516;28;20039;-74
2023/05/01 01:47:42;;;;;;;14.40;7.20;;;;;;;-145.41;100.00;58600.66;4971867;28;20042;-74
2023/05/01 01:50:10;;;;;;;12.60;7.25;;;;;;;-145.41;100.00;58600.66;4960212;28;20494;-74
2023/05/01 01:52:39;;;;;;;17.13;8.23;;;;;;;-145.41;100.00;58600.66;4962250;28;20039;-73
2023/05/01 01:55:09;;;;;;;15.48;7.97;;;;;;;-145.41;100.00;58600.66;4963149;28;20576;-74
2023/05/01 01:57:41;;;;;;;14.02;7.97;;;;;;;-145.41;100.00;58600.66;4961725;28;20474;-74
2023/05/01 02:00:09;;;;;;;15.30;7.80;;;;;;;-145.41;100.00;58600.66;4963794;28;20569;-74
2023/05/01 02:02:39;;;;;;;15.57;7.43;;;;;;;-145.41;100.00;58600.66;4961965;28;20098;-74
2023/05/01 02:05:06;;;;;;;16.55;7.90;;;;;;;-145.41;100.00;58600.66;4964951;28;20054;-74
2023/05/01 02:07:34;;;;;;;12.35;7.15;;;;;;;-145.41;100.00;58600.66;4964955;28;20038;-74
2023/05/01 02:10:01;;;;;;;12.90;6.65;;;;;;;-145.41;100.00;58600.66;4964504;28;20034;-74
2023/05/01 02:12:27;;;;;;;14.75;6.65;;;;;;;-145.41;100.00;58600.66;4965003;28;20050;-74
2023/05/01 02:14:53;;;;;;;12.93;7.35;;;;;;;-145.41;100.00;58600.66;4960796;28;20050;-73
2023/05/01 02:17:20;;;;;;;10.85;6.22;;;;;;;-145.41;100.00;58600.66;4963931;28;20031;-73
2023/05/01 02:19:45;;;;;;;14.07;6.90;;;;;;;-145.41;100.00;58600.66;4961978;28;20054;-73
2023/05/01 02:22:12;;;;;;;14.02;7.38;;;;;;;-145.41;100.00;58600.66;4962269;28;20038;-73
2023/05/01 02:24:40;;;;;;;13.32;6.95;;;;;;;-145.41;100.00;58600.66;4963103;28;20510;-74
2023/05/01 02:27:29;;;;;;;14.88;7.55;;;;;;;-145.41;100.00;58600.66;4962063;28;20035;-74
2023/05/01 02:29:55;;;;;;;14.38;7.85;;;;;;;-145.41;100.00;58600.66;4966812;28;20046;-74
2023/05/01 02:32:20;;;;;;;13.40;6.70;;;;;;;-145.41;100.00;58600.66;4961182;28;20035;-74
2023/05/01 02:34:45;;;;;;;14.65;7.32;;;;;;;-145.41;100.00;58600.66;4961912;28;20473;-74
2023/05/01 02:37:11;;;;;;;15.55;8.05;;;;;;;-145.41;100.00;58600.66;4971039;28;20038;-74
2023/05/01 02:39:39;;;;;;;16.98;7.50;;;;;;;-145.41;100.00;58600.66;4961274;28;20082;-74
2023/05/01 02:42:08;;;;;;;14.50;7.97;;;;;;;-145.41;100.00;58600.66;4961721;28;20042;-74
2023/05/01 02:44:44;;;;;;;14.25;7.35;;;;;;;-145.41;100.00;58600.66;4960797;28;20027;-75
2023/05/01 02:47:15;;;;;;;13.75;7.53;;;;;;;-145.41;100.00;58600.66;4964431;28;20039;-73
2023/05/01 02:49:42;;;;;;;13.52;7.45;;;;;;;-145.41;100.00;58600.66;4964934;28;20041;-74
2023/05/01 02:52:09;;;;;;;13.13;8.35;;;;;;;-145.41;100.00;58600.66;4964364;28;20560;-74
2023/05/01 02:54:34;;;;;;;19.15;8.98;;;;;;;-145.41;100.00;58600.66;4969229;28;20027;-73
2023/05/01 02:57:04;;;;;;;16.60;8.85;;;;;;;-145.41;100.00;58600.66;4969543;28;20402;-73
2023/05/01 02:59:30;;;;;;;21.10;10.00;;;;;;;-145.41;100.00;58600.66;4960838;28;20138;-74
2023/05/01 03:01:56;;;;;;;15.82;8.90;;;;;;;-145.41;100.00;58600.66;4962131;28;20427;-74
2023/05/01 03:04:22;;;;;;;18.33;8.80;;;;;;;-145.41;100.00;58600.66;4965163;28;20033;-74
2023/05/01 03:06:47;;;;;;;16.55;8.48;;;;;;;-145.41;100.00;58600.66;4960329;28;20034;-74
2023/05/01 03:09:13;;;;;;;21.00;9.40;;;;;;;-145.41;100.00;58600.66;4964246;28;20047;-74
2023/05/01 03:11:38;;;;;;;17.92;8.32;;;;;;;-145.41;100.00;58600.66;4960101;28;20039;-73
2023/05/01 03:14:03;;;;;;;16.83;8.30;;;;;;;-145.41;100.00;58600.66;4962542;28;20043;-74
2023/05/01 03:16:29;;;;;;;16.00;7.35;;;;;;;-145.41;100.00;58600.66;4962917;28;20038;-73
2023/05/01 03:18:54;;;;;;;13.73;7.45;;;;;;;-145.41;100.00;58600.66;4960946;28;20573;-73
2023/05/01 03:21:20;;;;;;;17.15;7.70;;;;;;;-145.41;100.00;58600.66;4962592;28;20074;-73
2023/05/01 03:23:45;;;;;;;14.20;7.97;;;;;;;-145.41;100.00;58600.66;4963075;28;20071;-73
2023/05/01 03:26:11;;;;;;;18.40;8.38;;;;;;;-145.41;100.00;58600.66;4959467;28;20055;-73
2023/05/01 03:28:37;;;;;;;13.93;7.90;;;;;;;-145.41;100.00;58600.66;4964370;28;20050;-72
2023/05/01 03:31:02;;;;;;;15.60;7.97;;;;;;;-145.41;100.00;58600.66;4961187;28;20038;-73
2023/05/01 03:33:30;;;;;;;15.90;7.60;;;;;;;-145.41;100.00;58600.66;4964119;28;20035;-73
2023/05/01 03:36:00;;;;;;;13.43;7.15;;;;;;;-145.41;100.00;58600.66;4969887;28;20517;-73
2023/05/01 03:38:27;;;;;;;14.25;7.65;;;;;;;-145.41;100.00;58600.66;4969997;28;20039;-73
2023/05/01 03:41:08;;;;;;;16.52;8.38;;;;;;;-145.41;100.00;58600.66;4970653;28;20494;-73
2023/05/01 03:43:51;;;;;;;14.30;8.30;;;;;;;-145.41;100.00;58600.66;4971693;28;20132;-73
2023/05/01 03:46:31;;;;;;;15.95;8.60;;;;;;;-145.41;100.00;58600.66;4962673;28;20043;-73
2023/05/01 03:48:56;;;;;;;17.05;7.88;;;;;;;-145.41;100.00;58600.66;4966955;28;20031;-73
2023/05/01 03:51:23;;;;;;;16.48;8.52;;;;;;;-145.41;100.00;58600.66;4966586;28;20039;-73
2023/05/01 03:53:51;;;;;;;16.25;8.20;;;;;;;-145.41;100.00;58600.66;4973823;28;20066;-73
2023/05/01 03:56:17;;;;;;;14.20;7.90;;;;;;;-145.41;100.00;58600.66;4965127;28;20066;-73
2023/05/01 03:58:43;;;;;;;17.98;8.10;;;;;;;-145.41;100.00;58600.66;4963540;28;20062;-73
2023/05/01 04:01:09;;;;;;;15.63;8.20;;;;;;;-145.41;100.00;58600.66;4968361;28;20027;-73
2023/05/01 04:03:39;;;;;;;20.65;8.77;;;;;;;-145.41;100.00;58600.66;4965093;28;20425;-74
2023/05/01 04:06:05;;;;;;;16.45;8.55;;;;;;;-145.41;100.00;58600.66;4972009;28;20031;-73
2023/05/01 04:08:30;;;;;;;17.02;8.18;;;;;;;-145.41;100.00;58600.66;4973329;28;20448;-73
2023/05/01 04:10:56;;;;;;;15.15;8.25;;;;;;;-145.41;100.00;58600.66;4970685;28;20023;-73
2023/05/01 04:13:21;;;;;;;17.67;8.15;;;;;;;-145.41;100.00;58600.66;4974283;28;20038;-73
2023/05/01 04:15:47;;;;;;;17.13;8.77;;;;;;;-145.41;100.00;58600.66;4973017;28;20561;-73
2023/05/01 04:18:13;;;;;;;18.58;9.23;;;;;;;-145.41;100.00;58600.66;4967067;28;20490;-74
2023/05/01 04:20:39;;;;;;;20.52;10.40;;;;;;;-145.41;100.00;58600.66;4962728;28;20041;-74
2023/05/01 04:23:05;;;;;;;18.40;10.00;;;;;;;-145.41;100.00;58600.66;4968364;28;20065;-74
2023/05/01 04:25:30;;;;;;;20.75;8.90;;;;;;;-145.41;100.00;58600.66;4965206;28;20034;-74
2023/05/01 04:28:03;;;;;;;19.08;9.50;;;;;;;-145.41;100.00;58600.66;4969063;28;20030;-74
2023/05/01 04:30:30;;;;;;;22.10;9.57;;;;;;;-145.41;100.00;58600.66;4964103;28;20050;-74
2023/05/01 04:32:57;;;;;;;19.20;9.82;;;;;;;-145.41;100.00;58600.66;4982012;28;20034;-74
2023/05/01 04:35:22;;;;;;;23.70;11.68;;;;;;;-145.41;100.00;58600.66;4969844;28;20027;-73
2023/05/01 04:37:48;;;;;;;21.27;10.38;;;;;;;-145.41;100.00;58600.66;4968760;28;20041;-74
2023/05/01 04:40:14;;;;;;;20.73;9.88;;;;;;;-145.41;100.00;58600.66;4964556;28;20046;-74
2023/05/01 04:42:41;;;;;;;21.58;10.85;;;;;;;-145.41;100.00;58600.66;4962885;28;20369;-74
2023/05/01 04:45:10;;;;;;;26.50;12.55;;;;;;;-145.41;100.00;58600.66;4971086;28;20042;-74
2023/05/01 04:47:36;;;;;;;24.77;11.90;;;;;;;-145.41;100.00;58600.66;4964439;28;20654;-73
2023/05/01 04:50:01;;;;;;;24.15;11.85;;;;;;;-145.41;100.00;58600.66;4968405;28;20156;-74
2023/05/01 04:52:29;;;;;;;22.77;12.10;;;;;;;-145.41;100.00;58600.66;4962418;28;20027;-74
2023/05/01 04:54:58;;;;;;;23.52;13.27;;;;;;;-145.41;100.00;58600.66;4971332;28;20502;-73
2023/05/01 04:57:26;;;;;;;23.75;13.05;;;;;;;-145.41;100.00;58600.66;4966807;28;20031;-74
2023/05/01 04:59:51;;;;;;;30.58;14.00;;;;;;;-145.41;100.00;58600.66;4968955;28;20090;-73
2023/05/01 05:02:17;;;;;;;33.97;14.50;;;;;;;-145.41;100.00;58600.66;4961494;28;20039;-73
2023/05/01 05:04:42;;;;;;;25.65;13.75;;;;;;;-145.41;100.00;58600.66;4970249;28;20043;-73
2023/05/01 05:07:08;;;;;;;28.13;14.68;;;;;;;-145.41;100.00;58600.66;4964863;28;20093;-74
2023/05/01 05:09:52;;;;;;;27.90;14.32;;;;;;;-145.41;100.00;58600.66;4968414;28;20053;-73
2023/05/01 05:12:18;;;;;;;29.67;14.70;;;;;;;-145.41;100.00;58600.66;4962831;28;20098;-73
2023/05/01 05:14:43;;;;;;;32.17;18.10;;;;;;;-145.41;100.00;58600.66;4963652;28;20038;-73
2023/05/01 05:17:11;;;;;;;33.78;17.83;;;;;;;-145.41;100.00;58600.66;4961590;28;20122;-73
2023/05/01 05:19:36;;;;;;;33.63;17.05;;;;;;;-145.41;100.00;58600.66;4972220;28;20129;-73
2023/05/01 05:22:02;;;;;;;33.08;18.25;;;;;;;-145.41;100.00;58600.66;4968952;28;20071;-73
2023/05/01 05:24:30;;;;;;;34.40;18.00;;;;;;;-145.41;100.00;58600.66;4972116;28;20126;-73
2023/05/01 05:26:55;;;;;;;36.88;18.90;;;;;;;-145.41;100.00;58600.66;4960785;28;20110;-73
2023/05/01 05:29:21;;;;;;;35.42;19.17;;;;;;;-145.41;100.00;58600.66;4964055;28;20035;-73
2023/05/01 05:31:46;;;;;;;38.92;21.02;;;;;;;-145.41;100.00;58600.66;4963132;28;20039;-73
2023/05/01 05:34:12;;;;;;;36.78;19.45;;;;;;;-145.41;100.00;58600.66;4967400;28;20062;-74
2023/05/01 05:36:38;;;;;;;41.38;20.50;;;;;;;-145.41;100.00;58600.66;4966198;28;20101;-73
2023/05/01 05:39:03;;;;;;;36.72;20.90;;;;;;;-145.41;100.00;58600.66;4969114;28;20651;-74
2023/05/01 05:41:29;;;;;;;37.85;20.83;;;;;;;-145.41;100.00;58600.66;4967076;28;20185;-73
2023/05/01 05:43:58;;;;;;;38.70;21.02;;;;;;;-145.41;100.00;58600.66;4961893;28;20042;-73
2023/05/01 05:46:23;;;;;;;40.03;21.10;;;;;;;-145.41;100.00;58600.66;4962984;28;20043;-74
2023/05/01 05:48:49;;;;;;;43.38;21.80;;;;;;;-145.41;100.00;58600.66;4971118;28;20564;-74
2023/05/01 05:51:15;;;;;;;43.00;23.48;;;;;;;-145.41;100.00;58600.66;4962752;28;20034;-74
2023/05/01 05:53:41;;;;;;;43.50;22.83;;;;;;;-145.41;100.00;58600.66;4962911;28;20035;-74
2023/05/01 05:56:07;;;;;;;41.38;23.05;;;;;;;-145.41;100.00;58600.66;4963920;28;20035;-74
2023/05/01 05:58:32;;;;;;;39.17;23.55;;;;;;;-145.41;100.00;58600.66;4969782;28;20039;-74
2023/05/01 06:00:58;;;;;;;43.50;23.40;;;;;;;-145.41;100.00;58600.66;4968094;28;20042;-74
2023/05/01 06:03:23;;;;;;;40.78;22.67;;;;;;;-145.41;100.00;58600.66;4969095;28;20038;-74
2023/05/01 06:05:51;;;;;;;49.70;25.40;;;;;;;-145.41;100.00;58600.66;4964056;28;20033;-74
2023/05/01 06:08:16;;;;;;;41.97;23.58;;;;;;;-145.41;100.00;58600.66;4963957;28;20039;-74
2023/05/01 06:10:42;;;;;;;42.70;23.33;;;;;;;-145.41;100.00;58600.66;4968164;28;20031;-74
2023/05/01 06:13:12;;;;;;;39.03;22.58;;;;;;;-145.41;100.00;58600.66;4962528;28;20422;-74
2023/05/01 06:15:38;;;;;;;42.58;24.30;;;;;;;-145.41;100.00;58600.66;4964927;28;20043;-74
2023/05/01 06:18:04;;;;;;;43.25;23.92;;;;;;;-145.41;100.00;58600.66;4960135;28;20035;-74
2023/05/01 06:20:30;;;;;;;42.10;23.77;;;;;;;-145.41;100.00;58600.66;4967702;28;20042;-74
2023/05/01 06:22:56;;;;;;;39.65;23.70;;;;;;;-145.41;100.00;58600.66;4961096;28;20039;-74
2023/05/01 06:25:28;;;;;;;46.42;25.30;;;;;;;-145.41;100.00;58600.66;4954996;28;20118;-74
2023/05/01 06:27:54;;;;;;;40.45;22.58;;;;;;;-145.41;100.00;58600.66;4969005;28;20169;-75
2023/05/01 06:30:21;;;;;;;35.85;20.52;;;;;;;-145.41;100.00;58600.66;4968644;28;20089;-75
2023/05/01 06:32:47;;;;;;;40.30;21.90;;;;;;;-145.41;100.00;58600.66;4969859;28;20448;-75
2023/05/01 06:35:14;;;;;;;43.15;24.08;;;;;;;-145.41;100.00;58600.66;4970811;28;20023;-75
2023/05/01 06:37:39;;;;;;;38.55;22.58;;;;;;;-145.41;100.00;58600.66;4972062;28;20041;-75
2023/05/01 06:40:07;;;;;;;42.25;22.35;;;;;;;-145.41;100.00;58600.66;4970775;28;20023;-75
2023/05/01 06:42:32;;;;;;;37.88;23.55;;;;;;;-145.41;100.00;58600.66;4960977;28;20041;-75
2023/05/01 06:45:00;;;;;;;40.55;22.92;;;;;;;-145.41;100.00;58600.66;4963676;28;20402;-75
2023/05/01 06:47:26;;;;;;;36.55;20.42;;;;;;;-145.41;100.00;58600.66;4960950;28;20517;-76
2023/05/01 06:49:52;;;;;;;38.55;22.20;;;;;;;-145.41;100.00;58600.66;4968773;28;20071;-75
2023/05/01 06:52:17;;;;;;;39.90;23.02;;;;;;;-145.41;100.00;58600.66;4967913;28;20067;-77
2023/05/01 06:54:42;;;;;;;36.42;21.08;;;;;;;-145.41;100.00;58600.66;4970914;28;20030;-75
2023/05/01 06:57:08;;;;;;;39.17;20.67;;;;;;;-145.41;100.00;58600.66;4967805;28;20523;-77
2023/05/01 06:59:33;;;;;;;32.33;20.08;;;;;;;-145.41;100.00;58600.66;4954635;28;20081;-75
2023/05/01 07:01:58;;;;;;;36.15;20.45;;;;;;;-145.41;100.00;58600.66;4967912;28;20118;-76
2023/05/01 07:04:24;;;;;;;33.13;19.85;;;;;;;-145.41;100.00;58600.66;4965029;28;20042;-76
2023/05/01 07:06:49;;;;;;;41.17;22.70;;;;;;;-145.41;100.00;58600.66;4964730;28;20043;-76
2023/05/01 07:09:14;;;;;;;37.97;22.00;;;;;;;-145.41;100.00;58600.66;4964970;28;20031;-76
2023/05/01 07:11:41;;;;;;;34.25;19.55;;;;;;;-145.41;100.00;58600.66;4966110;28;20457;-76
2023/05/01 07:14:06;;;;;;;32.78;19.02;;;;;;;-145.41;100.00;58600.66;4969628;28;20050;-76
2023/05/01 07:16:32;;;;;;;32.90;20.67;;;;;;;-145.41;100.00;58600.66;4966598;28;20077;-76
2023/05/01 07:18:57;;;;;;;31.08;18.40;;;;;;;-145.41;100.00;58600.66;4964432;28;20085;-76
2023/05/01 07:21:22;;;;;;;31.88;18.15;;;;;;;-145.41;100.00;58600.66;4969294;28;20054;-76
2023/05/01 07:23:48;;;;;;;28.75;17.60;;;;;;;-145.41;100.00;58600.66;4964561;28;20043;-76
2023/05/01 07:26:13;;;;;;;24.58;15.63;;;;;;;-145.41;100.00;58600.66;4967932;28;20429;-76
2023/05/01 07:28:39;;;;;;;29.15;16.98;;;;;;;-145.41;100.00;58600.66;4967533;28;20405;-76
2023/05/01 07:31:04;;;;;;;23.35;14.00;;;;;;;-145.41;100.00;58600.66;4971113;28;20560;-76
2023/05/01 07:33:29;;;;;;;22.05;13.25;;;;;;;-145.41;100.00;58600.66;4967460;28;20580;-76
2023/05/01 07:35:55;;;;;;;19.00;10.65;;;;;;;-145.41;100.00;58600.66;4967881;28;20493;-76
2023/05/01 07:38:20;;;;;;;16.65;8.35;;;;;;;-145.41;100.00;58600.66;4968530;28;20041;-76
2023/05/01 07:40:46;;;;;;;12.55;7.43;;;;;;;-145.41;100.00;58600.66;4968669;28;20026;-76
2023/05/01 07:43:11;;;;;;;10.95;6.25;;;;;;;-145.41;100.00;58600.66;4964913;28;20065;-76
2023/05/01 07:45:37;;;;;;;8.20;4.40;;;;;;;-145.41;100.00;58600.66;4967186;28;20039;-76
2023/05/01 07:48:04;;;;;;;7.70;3.90;;;;;;;-145.41;100.00;58600.66;4965056;28;20039;-76
2023/05/01 07:50:29;;;;;;;10.65;4.20;;;;;;;-145.41;100.00;58600.66;4966343;28;20125;-76
2023/05/01 07:52:55;;;;;;;9.27;3.97;;;;;;;-145.41;100.00;58600.66;4965233;28;20039;-76
2023/05/01 07:55:21;;;;;;;7.72;3.60;;;;;;;-145.41;100.00;58600.66;4970730;28;20129;-76
2023/05/01 07:57:47;;;;;;;8.35;4.05;;;;;;;-145.41;100.00;58600.66;4965305;28;20536;-76
2023/05/01 08:00:13;;;;;;;11.25;4.40;;;;;;;-145.41;100.00;58600.66;4967260;28;20027;-76
2023/05/01 08:02:41;;;;;;;6.50;3.38;;;;;;;-145.41;100.00;58600.66;4970629;28;20039;-76
2023/05/01 08:05:07;;;;;;;8.32;3.35;;;;;;;-145.41;100.00;58600.66;4967383;28;20105;-76
2023/05/01 08:07:32;;;;;;;7.95;3.67;;;;;;;-145.41;100.00;58600.66;4969150;28;20050;-76
2023/05/01 08:09:59;;;;;;;7.13;3.50;;;;;;;-145.41;100.00;58600.66;4965387;28;20541;-76
2023/05/01 08:12:25;;;;;;;7.65;3.20;;;;;;;-145.41;100.00;58600.66;4967388;28;20116;-76
2023/05/01 08:14:50;;;;;;;9.38;3.60;;;;;;;-145.41;100.00;58600.66;4967238;28;20034;-76
2023/05/01 08:17:15;;;;;;;7.00;3.45;;;;;;;-145.41;100.00;58600.66;4964139;28;20450;-76
2023/05/01 08:19:41;;;;;;;5.90;3.17;;;;;;;-145.41;100.00;58600.66;4966284;28;20482;-76
2023/05/01 08:22:06;;;;;;;8.32;3.17;;;;;;;-145.41;100.00;58600.66;4967067;28;20047;-76
2023/05/01 08:24:31;;;;;;;10.02;3.78;;;;;;;-145.41;100.00;58600.66;4965719;28;20039;-76
2023/05/01 08:26:57;;;;;;;7.38;3.60;;;;;;;-145.41;100.00;58600.66;4963471;28;20401;-76
2023/05/01 08:29:22;;;;;;;7.50;3.20;;;;;;;-145.41;100.00;58600.66;4966400;28;20041;-76
2023/05/01 08:31:47;;;;;;;7.93;3.70;;;;;;;-145.41;100.00;58600.66;4963658;28;20039;-76
2023/05/01 08:34:13;;;;;;;7.10;3.42;;;;;;;-145.41;100.00;58600.66;4966701;28;20030;-76
2023/05/01 08:36:38;;;;;;;8.75;3.20;;;;;;;-145.41;100.00;58600.66;4966769;28;20074;-76
2023/05/01 08:39:04;;;;;;;8.32;3.83;;;;;;;-145.41;100.00;58600.66;4965556;28;20126;-76
2023/05/01 08:41:31;;;;;;;8.00;3.03;;;;;;;-145.41;100.00;58600.66;4966793;28;20074;-76
2023/05/01 08:44:00;;;;;;;6.05;2.72;;;;;;;-145.41;100.00;58600.66;4963172;28;20067;-76
2023/05/01 08:46:43;;;;;;;8.80;3.72;;;;;;;-145.41;100.00;58600.66;4966603;28;20046;-76
2023/05/01 08:49:11;;;;;;;5.68;3.10;;;;;;;-145.41;100.00;58600.66;4963182;28;20035;-76
2023/05/01 08:51:38;;;;;;;6.30;2.97;;;;;;;-145.41;100.00;58600.66;4968590;28;20043;-76
2023/05/01 08:54:05;;;;;;;8.07;3.10;;;;;;;-145.41;100.00;58600.66;4962688;28;20035;-76
2023/05/01 08:56:34;;;;;;;7.10;3.13;;;;;;;-145.41;100.00;58600.66;4966403;28;20087;-76
2023/05/01 08:59:03;;;;;;;7.65;2.83;;;;;;;-145.41;100.00;58600.66;4965193;28;20043;-76
2023/05/01 09:01:31;;;;;;;6.25;3.05;;;;;;;-145.41;100.00;58600.66;4965032;28;20035;-76
2023/05/01 09:03:57;;;;;;;7.75;3.17;;;;;;;-145.41;100.00;58600.66;4969904;28;20126;-76
2023/05/01 09:06:27;;;;;;;7.40;3.28;;;;;;;-145.41;100.00;58600.66;4966293;28;20043;-76
2023/05/01 09:08:52;;;;;;;7.35;3.47;;;;;;;-145.41;100.00;58600.66;4965548;28;20054;-77
2023/05/01 09:11:18;;;;;;;6.40;3.47;;;;;;;-145.41;100.00;58600.66;4965228;28;20035;-76
2023/05/01 09:13:45;;;;;;;6.93;3.20;;;;;;;-145.41;100.00;58600.66;4965418;28;20043;-76
2023/05/01 09:16:10;;;;;;;6.15;3.03;;;;;;;-145.41;100.00;58600.66;4965391;28;20030;-76
2023/05/01 09:18:36;;;;;;;6.85;2.67;;;;;;;-145.41;100.00;58600.66;4965349;28;20518;-76
2023/05/01 09:21:02;;;;;;;6.47;3.08;;;;;;;-145.41;100.00;58600.66;4965360;28;20115;-76
2023/05/01 09:23:27;;;;;;;7.88;3.20;;;;;;;-145.41;100.00;58600.66;4965974;28;20035;-76
2023/05/01 09:25:54;;;;;;;6.70;3.00;;;;;;;-145.41;100.00;58600.66;4962165;28;20039;-77
2023/05/01 09:28:40;;;;;;;6.30;3.20;;;;;;;-145.41;100.00;58600.66;4968941;28;20581;-76
2023/05/01 09:31:23;;;;;;;5.95;3.13;;;;;;;-145.41;100.00;58600.66;4964680;28;20090;-76
2023/05/01 09:33:57;;;;;;;5.47;3.05;;;;;;;-145.41;100.00;58600.66;4964697;28;20042;-76
2023/05/01 09:36:27;;;;;;;5.63;3.00;;;;;;;-145.41;100.00;58600.66;4962843;28;20035;-76
2023/05/01 09:38:53;;;;;;;7.35;3.33;;;;;;;-145.41;100.00;58600.66;4966722;28;20050;-76
2023/05/01 09:41:22;;;;;;;9.52;3.08;;;;;;;-145.41;100.00;58600.66;4965668;28;20449;-76
2023/05/01 09:44:16;;;;;;;6.82;3.35;;;;;;;-145.41;100.00;58600.66;4961940;28;20041;-76
2023/05/01 09:46:42;;;;;;;8.63;3.30;;;;;;;-145.41;100.00;58600.66;4965458;28;20055;-76
2023/05/01 09:49:08;;;;;;;6.82;3.03;;;;;;;-145.41;100.00;58600.66;4963830;28;20106;-76
2023/05/01 09:51:33;;;;;;;7.05;3.17;;;;;;;-145.41;100.00;58600.66;4963662;28;20038;-76
2023/05/01 09:54:01;;;;;;;6.55;2.92;;;;;;;-145.41;100.00;58600.66;4962048;28;20130;-77
2023/05/01 09:56:28;;;;;;;6.78;3.22;;;;;;;-145.41;100.00;58600.66;4965358;28;20038;-76
2023/05/01 09:58:54;;;;;;;6.15;3.10;;;;;;;-145.41;100.00;58600.66;4963968;28;20039;-76
2023/05/01 10:01:39;;;;;;;6.70;2.55;;;;;;;-145.41;100.00;58600.66;4962877;28;20074;-77
2023/05/01 10:04:04;;;;;;;6.03;3.10;;;;;;;-145.41;100.00;58600.66;4965073;28;20553;-76
2023/05/01 10:06:30;;;;;;;6.32;3.00;;;;;;;-145.41;100.00;58600.66;4964982;28;20126;-75
2023/05/01 10:08:56;;;;;;;7.70;3.20;;;;;;;-145.41;100.00;58600.66;4969113;28;20039;-75
2023/05/01 10:11:22;;;;;;;8.98;3.10;;;;;;;-145.41;100.00;58600.66;4965794;28;20481;-75
2023/05/01 10:14:09;;;;;;;8.02;3.05;;;;;;;-145.41;100.00;58600.66;4964451;28;20098;-74
2023/05/01 10:16:36;;;;;;;7.72;3.40;;;;;;;-145.41;100.00;58600.66;4963744;28;20070;-75
2023/05/01 10:19:03;;;;;;;5.78;3.15;;;;;;;-145.41;100.00;58600.66;4964675;28;20042;-74
2023/05/01 10:21:30;;;;;;;7.60;3.22;;;;;;;-145.41;100.00;58600.66;4964804;28;20370;-75
2023/05/01 10:23:56;;;;;;;7.45;3.22;;;;;;;-145.41;100.00;58600.66;4964376;28;20046;-74
2023/05/01 10:26:23;;;;;;;8.43;3.17;;;;;;;-145.41;100.00;58600.66;4961785;28;20417;-74
2023/05/01 10:28:48;;;;;;;5.43;3.03;;;;;;;-145.41;100.00;58600.66;4963589;28;20081;-75
2023/05/01 10:31:15;;;;;;;6.20;2.60;;;;;;;-145.41;100.00;58600.66;4965671;28;20032;-74
2023/05/01 10:33:44;;;;;;;5.75;2.97;;;;;;;-145.41;100.00;58600.66;4966511;28;20127;-75
2023/05/01 10:36:14;;;;;;;6.38;2.92;;;;;;;-145.41;100.00;58600.66;4963163;28;20390;-74
2023/05/01 10:38:44;;;;;;;5.00;2.70;;;;;;;-145.41;100.00;58600.66;4962831;28;20042;-74
2023/05/01 10:41:10;;;;;;;6.18;2.70;;;;;;;-145.41;100.00;58600.66;4964450;28;20154;-75
2023/05/01 10:43:35;;;;;;;7.97;3.17;;;;;;;-145.41;100.00;58600.66;4965222;28;20031;-75
2023/05/01 10:46:06;;;;;;;6.53;2.63;;;;;;;-145.41;100.00;58600.66;4964231;28;20477;-75
2023/05/01 10:48:41;;;;;;;5.45;2.80;;;;;;;-145.41;100.00;58600.66;4960751;28;20047;-75
2023/05/01 10:51:33;;;;;;;6.00;2.85;;;;;;;-145.41;100.00;58600.66;4998358;23;20042;-73
2023/05/01 10:54:11;;;;;;;6.65;2.92;;;;;;;-145.41;100.00;58600.66;5003741;28;20137;-73
2023/05/01 10:56:36;;;;;;;6.00;3.00;;;;;;;-145.41;100.00;58600.66;5002935;28;20044;-73
2023/05/01 10:59:06;;;;;;;6.25;2.67;;;;;;;-145.41;100.00;58600.66;4999850;28;20038;-74
2023/05/01 11:01:46;;;;;;;7.10;2.63;;;;;;;-145.41;100.00;58600.66;4982307;28;20034;-73
2023/05/01 11:04:23;;;;;;;7.72;2.97;;;;;;;-145.41;100.00;58600.66;4983762;28;20041;-73
2023/05/01 11:07:01;;;;;;;5.07;2.28;;;;;;;-145.41;100.00;58600.66;4979929;28;20147;-73